Airfield :
LOGIN :

Register | Disclaimer

   EN    FR    IT 

 










Legend :    VFR   Marginal VFR   IFR   Intensive IFR   Very Intensive IFR
Visi :
Ceiling :
>= 8 km
>= 3000ft
5 to 8 km
1000 to 3000 ft
1500m to 5 km
500 to 1000 ft
800 to 1500m
200 to 500 ft
< 800m
< 200 ft
Symbols :   Thunderstorms  Fog  Heavy snow  Heavy precipitations  Wind > 20 kt
SIGMETs :     Misc.  Thunderstorms  Icing  Turbulence  Mountain Waves  Volcanic Ashes







- Airport Elevation : 436 ft
- IATA code : BTS


LZIB - Bratislava

CURRENT METAR :
  • 230430Z 30018KT 9999 FEW013 BKN025 13/09 Q1014 WS R13 NOSIG

EXPIRED METARs :
  • 230400Z 29017G28KT 9999 FEW013 BKN026 13/10 Q1014 WS R13 NOSIG
  • 230330Z 30015KT 9999 BKN027 13/10 Q1014
  • 230300Z 30013KT 9999 BKN028 13/10 Q1014
  • 230230Z 31011KT 270V330 9999 SCT020 BKN026 13/10 Q1014
  • 230200Z 31005KT 260V350 9999 SCT028 BKN038 13/10 Q1014 WS ALL RWY

TAF TAF LZIB
Valid from the 23 at 00:00 until the 24 at 00:00 UTC


222300Z 2300/2400 31013KT 9999 SCT010 BKN020
TEMPO 2300/2308 -RA BKN009 OVC015
PROB40
TEMPO 2300/2314 30018G28KT
BECMG 2308/2310 SCT030 BKN100
BECMG 2314/2316 32009KT
No reported NOTAMs for that airfield.



MET'MAP, your aeronautical weather chart ! - Copyright ORBIFLY December 2007 - Disclaimer

ORBIFLY MET'MAP TEAM :

Programming & Development : Alexandra Zaïnal
Concept & Development : Baudouin d'Aumeries
Co-Development & Prog : Marc-Olivier Méhu
Technical & hardware support : Manuel Goepfert

Contact : metmap@orbifly.com




SOURCES & CREDITS :

   NOAA